Time;durP1;ratioP1;P1;durP2;ratioP2;P2;SDS_P1;SDS_P2;PMS_P1;PMS_P2;Temp;Humidity;BMP_temperature;BMP_pressure;BME280_temperature;BME280_humidity;BME280_pressure;Samples;Min_cycle;Max_cycle;Signal;HPM_P1;HPM_P2
2023/01/18 00:00:40;;;;;;;15.18;9.00;;;-1.10;99.90;;;;;;5107209;27;20035;-69
2023/01/18 00:03:11;;;;;;;17.02;9.00;;;-1.10;99.90;;;;;;5112402;27;20031;-69
2023/01/18 00:05:40;;;;;;;17.73;9.48;;;-1.10;99.90;;;;;;5114714;27;20307;-70
2023/01/18 00:08:07;;;;;;;16.08;9.93;;;-1.10;99.90;;;;;;5117338;27;20035;-70
2023/01/18 00:10:32;;;;;;;17.65;9.27;;;-1.10;99.90;;;;;;5110888;27;20152;-70
2023/01/18 00:12:58;;;;;;;20.30;10.00;;;-1.10;99.90;;;;;;5109134;27;20443;-69
2023/01/18 00:15:24;;;;;;;21.48;11.00;;;-1.10;99.90;;;;;;5112485;27;20035;-69
2023/01/18 00:17:52;;;;;;;19.67;10.25;;;-1.10;99.90;;;;;;5116110;27;20153;-69
2023/01/18 00:20:21;;;;;;;18.77;10.38;;;-1.10;99.90;;;;;;5114735;27;20482;-68
2023/01/18 00:22:47;;;;;;;22.10;10.35;;;-1.10;99.90;;;;;;5114936;27;20049;-68
2023/01/18 00:25:13;;;;;;;19.92;11.10;;;-1.20;99.90;;;;;;5109437;27;20047;-69
2023/01/18 00:27:43;;;;;;;22.17;10.60;;;-1.20;99.90;;;;;;5111735;27;20497;-69
2023/01/18 00:30:10;;;;;;;19.20;10.43;;;-1.10;99.90;;;;;;5114628;27;20035;-68
2023/01/18 00:32:35;;;;;;;19.10;10.77;;;-1.10;99.90;;;;;;5113922;27;20035;-69
2023/01/18 00:35:06;;;;;;;23.63;11.63;;;-1.10;99.90;;;;;;5107245;27;20092;-68
2023/01/18 00:37:34;;;;;;;22.35;10.93;;;-1.20;99.90;;;;;;5110514;27;21355;-70
2023/01/18 00:40:00;;;;;;;21.95;11.07;;;-1.10;99.90;;;;;;5114267;27;20485;-69
2023/01/18 00:45:10;;;;;;;19.55;10.85;;;-1.20;99.90;;;;;;5109879;27;20062;-70
2023/01/18 00:47:35;;;;;;;17.90;9.98;;;-1.10;99.90;;;;;;5107709;27;20039;-68
2023/01/18 00:50:01;;;;;;;20.17;10.57;;;-1.20;99.90;;;;;;5093626;27;20074;-69
2023/01/18 00:52:27;;;;;;;17.35;9.73;;;-1.30;99.90;;;;;;5110753;27;20119;-68
2023/01/18 00:54:53;;;;;;;18.02;10.57;;;-1.20;99.90;;;;;;5111918;27;20443;-69
2023/01/18 00:57:18;;;;;;;23.10;10.77;;;-1.20;99.90;;;;;;5113038;27;20038;-68
2023/01/18 00:59:45;;;;;;;21.15;10.55;;;-1.10;99.90;;;;;;5108417;27;20110;-69
2023/01/18 01:02:11;;;;;;;20.15;10.43;;;-1.20;99.90;;;;;;5095674;27;20047;-68
2023/01/18 01:07:21;;;;;;;19.42;10.45;;;-1.20;99.90;;;;;;5112981;27;20046;-69
2023/01/18 01:09:47;;;;;;;17.95;10.40;;;-1.30;99.90;;;;;;5105298;27;20129;-70
2023/01/18 01:26:07;;;;;;;17.35;9.43;;;-1.20;99.90;;;;;;5113666;27;20129;-69
2023/01/18 01:28:44;;;;;;;16.98;9.60;;;-1.20;99.90;;;;;;5106230;27;20039;-69
2023/01/18 01:31:13;;;;;;;19.30;9.32;;;-1.20;99.90;;;;;;5112785;27;20039;-69
2023/01/18 01:33:39;;;;;;;18.55;9.85;;;-1.20;99.90;;;;;;5111103;27;20031;-69
2023/01/18 01:36:12;;;;;;;20.58;10.13;;;-1.20;99.90;;;;;;5114516;27;20085;-69
2023/01/18 01:38:40;;;;;;;;;;;-1.30;99.90;;;;;;5110060;27;20042;-69
2023/01/18 01:41:15;;;;;;;19.83;9.82;;;-1.20;99.90;;;;;;5091190;27;19961;-70
2023/01/18 01:43:48;;;;;;;18.02;9.40;;;-1.20;99.90;;;;;;5107455;27;20046;-69
2023/01/18 01:46:52;;;;;;;19.08;10.00;;;-1.20;99.90;;;;;;5111820;27;20042;-69
2023/01/18 01:49:31;;;;;;;17.98;9.95;;;-1.20;99.90;;;;;;5106880;27;20405;-68
2023/01/18 01:52:09;;;;;;;19.05;9.15;;;-1.20;99.90;;;;;;5107777;27;20259;-70
2023/01/18 01:54:52;;;;;;;16.88;8.93;;;-1.20;99.90;;;;;;5104437;27;20089;-69
2023/01/18 01:57:26;;;;;;;19.90;9.48;;;-1.30;99.90;;;;;;5113174;27;20073;-68
2023/01/18 02:00:01;;;;;;;19.27;9.57;;;-1.20;99.90;;;;;;5108507;27;20039;-68
2023/01/18 02:02:29;;;;;;;18.85;9.52;;;-1.30;99.90;;;;;;5106907;27;20056;-69
2023/01/18 02:04:58;;;;;;;19.52;10.00;;;-1.30;99.90;;;;;;5121449;27;20058;-68
2023/01/18 02:07:27;;;;;;;19.77;10.20;;;-1.30;99.90;;;;;;5105754;27;20076;-68
2023/01/18 02:09:54;;;;;;;15.10;9.65;;;-1.30;99.90;;;;;;5111703;27;20430;-68
2023/01/18 02:12:21;;;;;;;19.40;10.13;;;-1.30;99.90;;;;;;5111600;27;20043;-68
2023/01/18 02:14:47;;;;;;;19.83;9.98;;;-1.40;99.90;;;;;;5108024;27;20054;-69
2023/01/18 02:17:31;;;;;;;16.83;9.63;;;-1.30;99.90;;;;;;5113502;27;20035;-69
2023/01/18 02:20:55;;;;;;;19.17;9.88;;;-1.30;99.90;;;;;;5093147;27;20050;-69
2023/01/18 02:23:35;;;;;;;22.08;9.85;;;-1.40;99.90;;;;;;5079390;27;20073;-68
2023/01/18 02:26:28;;;;;;;20.33;9.48;;;-1.30;99.90;;;;;;5110355;27;20043;-69
2023/01/18 02:28:59;;;;;;;;;;;-1.30;99.90;;;;;;5109025;27;20133;-69
2023/01/18 02:31:33;;;;;;;17.48;9.75;;;-1.40;99.90;;;;;;5109036;27;20309;-69
2023/01/18 02:34:18;;;;;;;19.42;9.90;;;-1.40;99.90;;;;;;5106117;27;20047;-69
2023/01/18 02:37:05;;;;;;;19.65;10.40;;;-1.40;99.90;;;;;;5106045;27;20091;-68
2023/01/18 02:39:45;;;;;;;20.02;9.60;;;-1.50;99.90;;;;;;5106864;27;20039;-69
2023/01/18 02:48:13;;;;;;;19.50;10.05;;;-1.50;99.90;;;;;;5100422;27;20130;-69
2023/01/18 02:50:39;;;;;;;20.95;9.98;;;-1.60;99.90;;;;;;5091310;27;20043;-69
2023/01/18 02:53:04;;;;;;;22.90;9.77;;;-1.50;99.90;;;;;;5103721;27;20489;-69
2023/01/18 02:55:42;;;;;;;19.85;10.35;;;-1.60;99.90;;;;;;5109589;27;20035;-69
2023/01/18 02:58:29;;;;;;;18.67;9.70;;;-1.60;99.90;;;;;;5107806;27;20062;-69
2023/01/18 03:01:02;;;;;;;19.25;10.55;;;-1.60;99.90;;;;;;5103041;27;20035;-69
2023/01/18 03:03:27;;;;;;;19.20;9.45;;;-1.60;99.90;;;;;;5104222;27;20047;-70
2023/01/18 03:05:57;;;;;;;17.00;9.38;;;-1.60;99.90;;;;;;5104988;27;20096;-69
2023/01/18 03:08:40;;;;;;;22.65;9.98;;;-1.70;99.90;;;;;;5111418;27;20035;-69
2023/01/18 03:11:33;;;;;;;18.63;10.32;;;-1.60;99.90;;;;;;5087707;27;20477;-69
2023/01/18 03:14:10;;;;;;;17.58;9.30;;;-1.70;99.90;;;;;;5103601;28;20058;-69
2023/01/18 03:16:39;;;;;;;17.92;9.93;;;-1.70;99.90;;;;;;5107511;27;20043;-69
2023/01/18 03:22:01;;;;;;;22.63;11.07;;;-1.70;99.90;;;;;;5105874;28;20054;-69
2023/01/18 03:24:29;;;;;;;19.25;10.40;;;-1.60;99.90;;;;;;5091850;27;20137;-69
2023/01/18 03:35:26;;;;;;;22.77;10.55;;;-1.60;99.90;;;;;;5108268;28;20532;-69
2023/01/18 03:37:54;;;;;;;20.38;10.68;;;-1.60;99.90;;;;;;5103478;27;20046;-69
2023/01/18 03:40:25;;;;;;;20.83;10.65;;;-1.60;99.90;;;;;;5107687;28;20050;-68
2023/01/18 03:43:10;;;;;;;22.70;10.35;;;-1.80;99.90;;;;;;5107311;28;20390;-69
2023/01/18 03:45:42;;;;;;;23.02;11.10;;;-1.70;99.90;;;;;;5104840;28;20179;-69
2023/01/18 03:48:09;;;;;;;23.27;10.68;;;-1.60;99.90;;;;;;5109288;27;20039;-69
2023/01/18 03:51:09;;;;;;;22.77;10.80;;;-1.70;99.90;;;;;;5099816;27;20050;-69
2023/01/18 03:53:56;;;;;;;20.45;11.02;;;-1.70;99.90;;;;;;5107919;28;20092;-69
2023/01/18 03:56:41;;;;;;;19.33;11.00;;;-1.70;99.90;;;;;;5109720;28;20122;-69
2023/01/18 03:59:07;;;;;;;21.02;11.05;;;-1.80;99.90;;;;;;5108760;28;20039;-69
2023/01/18 04:01:33;;;;;;;21.80;11.32;;;-1.80;99.90;;;;;;5106370;28;20035;-69
2023/01/18 04:03:59;;;;;;;24.58;11.95;;;-1.70;99.90;;;;;;5102995;28;20088;-70
2023/01/18 04:06:24;;;;;;;20.52;11.88;;;-1.70;99.90;;;;;;5107415;28;20039;-68
2023/01/18 04:08:51;;;;;;;24.45;11.50;;;-1.70;99.90;;;;;;5115182;27;20508;-69
2023/01/18 04:11:17;;;;;;;18.85;10.68;;;-1.70;99.90;;;;;;5103734;28;20490;-69
2023/01/18 04:13:43;;;;;;;21.58;11.48;;;-1.70;99.90;;;;;;5104251;28;20355;-69
2023/01/18 04:16:08;;;;;;;23.25;11.65;;;-1.70;99.90;;;;;;5108403;28;20031;-69
2023/01/18 04:18:34;;;;;;;20.95;11.23;;;-1.60;99.90;;;;;;5108375;27;20043;-69
2023/01/18 04:21:00;;;;;;;22.70;11.55;;;-1.70;99.90;;;;;;5110168;28;20039;-69
2023/01/18 04:23:26;;;;;;;20.00;11.07;;;-1.80;99.90;;;;;;5109409;27;20031;-69
2023/01/18 04:25:52;;;;;;;25.73;11.60;;;-1.70;99.90;;;;;;5105378;27;20078;-69
2023/01/18 04:28:24;;;;;;;21.35;11.30;;;-1.70;99.90;;;;;;5091331;27;20035;-69
2023/01/18 04:30:51;;;;;;;22.45;11.85;;;-1.70;99.90;;;;;;5106049;28;20074;-69
2023/01/18 04:33:19;;;;;;;21.02;11.30;;;-1.80;99.90;;;;;;5109688;27;20623;-69
2023/01/18 04:35:48;;;;;;;21.13;11.50;;;-1.80;99.90;;;;;;5104452;27;20039;-70
2023/01/18 04:38:15;;;;;;;20.27;11.50;;;-1.70;99.90;;;;;;5091767;27;20046;-69
2023/01/18 04:40:41;;;;;;;23.38;11.25;;;-1.80;99.90;;;;;;5109757;27;20516;-69
2023/01/18 04:43:07;;;;;;;24.00;11.68;;;-1.70;99.90;;;;;;5105134;27;20046;-70
2023/01/18 04:45:33;;;;;;;21.83;12.05;;;-1.80;99.90;;;;;;5109297;27;20084;-70
2023/01/18 04:47:59;;;;;;;20.55;11.20;;;-1.80;99.90;;;;;;5107942;27;20048;-69
2023/01/18 04:50:24;;;;;;;23.45;12.30;;;-1.80;99.90;;;;;;5127838;27;20035;-69
2023/01/18 04:52:50;;;;;;;24.85;12.02;;;-1.80;99.90;;;;;;5108503;27;20398;-69
2023/01/18 04:55:16;;;;;;;23.42;11.55;;;-1.80;99.90;;;;;;5108660;27;20065;-68
2023/01/18 04:57:42;;;;;;;22.23;12.13;;;-1.70;99.90;;;;;;5106706;27;20031;-69
2023/01/18 05:00:09;;;;;;;23.58;11.90;;;-1.80;99.90;;;;;;5106711;27;20038;-69
2023/01/18 05:02:35;;;;;;;22.50;11.95;;;-1.70;99.90;;;;;;5104329;27;20076;-69
2023/01/18 05:05:00;;;;;;;24.50;12.68;;;-1.70;99.90;;;;;;5110406;27;20031;-69
2023/01/18 05:07:29;;;;;;;23.55;11.82;;;-1.80;99.90;;;;;;5109940;27;20078;-69
2023/01/18 05:09:55;;;;;;;20.77;12.07;;;-1.70;99.90;;;;;;5109539;27;20053;-68
2023/01/18 05:12:21;;;;;;;24.77;12.80;;;-1.80;99.90;;;;;;5091002;27;20035;-68
2023/01/18 05:14:47;;;;;;;24.45;12.00;;;-1.80;99.90;;;;;;5109631;27;20111;-69
2023/01/18 05:17:12;;;;;;;22.17;12.13;;;-1.80;99.90;;;;;;5105315;27;20059;-69
2023/01/18 05:19:39;;;;;;;23.35;11.40;;;-1.70;99.90;;;;;;5108274;27;20385;-70
2023/01/18 05:22:05;;;;;;;24.77;11.82;;;-1.70;99.90;;;;;;5105866;27;20400;-69
2023/01/18 05:24:31;;;;;;;24.50;12.27;;;-1.80;99.90;;;;;;5107949;27;20069;-70
2023/01/18 05:26:57;;;;;;;21.80;11.63;;;-1.80;99.90;;;;;;5111989;27;20088;-69
2023/01/18 05:29:23;;;;;;;22.90;11.38;;;-1.70;99.90;;;;;;5105416;27;20043;-69
2023/01/18 05:31:51;;;;;;;24.17;11.63;;;-1.80;99.90;;;;;;5107752;27;20035;-70
2023/01/18 05:34:16;;;;;;;22.38;11.70;;;-1.80;99.90;;;;;;5098295;27;20358;-70
2023/01/18 05:36:42;;;;;;;24.08;11.38;;;-1.80;99.90;;;;;;5104939;27;20493;-70
2023/01/18 05:39:08;;;;;;;24.77;11.77;;;-1.80;99.90;;;;;;5114014;27;20034;-69
2023/01/18 05:41:33;;;;;;;22.92;12.15;;;-1.80;99.90;;;;;;5101183;27;20081;-69
2023/01/18 05:43:59;;;;;;;23.77;11.32;;;-1.70;99.90;;;;;;5089137;27;20526;-70
2023/01/18 05:46:25;;;;;;;20.98;11.02;;;-1.70;99.90;;;;;;5122302;27;20027;-69
2023/01/18 05:48:55;;;;;;;18.80;10.57;;;-1.80;99.90;;;;;;5104602;27;20128;-69
2023/01/18 05:51:20;;;;;;;23.27;11.50;;;-1.80;99.90;;;;;;5105716;27;20097;-69
2023/01/18 05:53:46;;;;;;;20.85;11.20;;;-1.90;99.90;;;;;;5110826;27;20039;-69
2023/01/18 05:56:11;;;;;;;22.58;11.60;;;-1.80;99.90;;;;;;5111262;27;20031;-70
2023/01/18 05:58:37;;;;;;;24.92;12.15;;;-1.90;99.90;;;;;;5111471;27;21753;-69
2023/01/18 06:01:03;;;;;;;24.38;12.60;;;-1.80;99.90;;;;;;5127015;27;20558;-69
2023/01/18 06:03:29;;;;;;;23.30;12.13;;;-1.90;99.90;;;;;;5109627;27;20538;-69
2023/01/18 06:05:55;;;;;;;26.63;12.27;;;-1.90;99.90;;;;;;5110116;27;20046;-70
2023/01/18 06:08:21;;;;;;;22.38;12.43;;;-1.80;99.90;;;;;;5090118;27;20046;-69
2023/01/18 06:10:57;;;;;;;25.88;12.52;;;-1.80;99.90;;;;;;5106090;27;20050;-69
2023/01/18 06:13:26;;;;;;;24.38;11.70;;;-1.80;99.90;;;;;;5103972;27;21704;-69
2023/01/18 06:15:53;;;;;;;22.83;11.68;;;-1.70;99.90;;;;;;5104854;27;20039;-70
2023/01/18 06:18:19;;;;;;;24.83;12.00;;;-1.80;99.90;;;;;;5104464;27;20131;-70
2023/01/18 06:20:45;;;;;;;29.05;12.52;;;-1.80;99.90;;;;;;5106356;27;20053;-69
2023/01/18 06:23:11;;;;;;;27.08;13.10;;;-1.80;99.90;;;;;;5103831;27;20032;-68
2023/01/18 06:25:37;;;;;;;26.25;12.23;;;-1.70;99.90;;;;;;5101730;27;20060;-69
2023/01/18 06:28:03;;;;;;;22.17;11.73;;;-1.80;99.90;;;;;;5108414;27;20183;-69
2023/01/18 06:30:30;;;;;;;24.38;12.30;;;-1.80;99.90;;;;;;5105489;27;20561;-70
2023/01/18 06:32:55;;;;;;;27.60;12.87;;;-1.80;99.90;;;;;;5105522;27;20080;-70
2023/01/18 06:35:22;;;;;;;25.85;11.68;;;-1.80;99.90;;;;;;5104805;27;20027;-70
2023/01/18 06:37:47;;;;;;;25.02;12.13;;;-1.70;99.90;;;;;;5107608;27;20063;-69
2023/01/18 06:40:13;;;;;;;26.08;12.23;;;-1.80;99.90;;;;;;5103806;27;20386;-70
2023/01/18 06:42:39;;;;;;;26.13;12.13;;;-1.70;99.90;;;;;;5103758;27;20032;-70
2023/01/18 06:45:05;;;;;;;24.40;11.25;;;-1.70;99.90;;;;;;5098318;27;20051;-70
2023/01/18 06:47:31;;;;;;;21.88;12.00;;;-1.80;99.90;;;;;;5106039;27;20572;-70
2023/01/18 06:49:56;;;;;;;25.02;12.18;;;-1.80;99.90;;;;;;5107872;27;20122;-70
2023/01/18 06:52:22;;;;;;;23.88;11.85;;;-1.60;99.90;;;;;;5107798;27;20035;-69
2023/01/18 06:54:48;;;;;;;25.67;12.43;;;-1.70;99.90;;;;;;5089916;27;20100;-69
2023/01/18 06:57:14;;;;;;;23.05;11.68;;;-1.70;99.90;;;;;;5111454;28;20039;-69
2023/01/18 06:59:39;;;;;;;25.45;11.30;;;-1.70;99.90;;;;;;5112909;28;20031;-70
2023/01/18 07:02:12;;;;;;;25.02;11.38;;;-1.60;99.90;;;;;;5112871;27;20042;-70
2023/01/18 07:04:42;;;;;;;25.02;12.18;;;-1.60;99.90;;;;;;5113878;27;20037;-70
2023/01/18 07:07:08;;;;;;;25.20;11.20;;;-1.60;99.90;;;;;;5089283;27;20043;-71
2023/01/18 07:09:34;;;;;;;23.80;11.73;;;-1.60;99.90;;;;;;5113129;27;20503;-69
2023/01/18 07:12:00;;;;;;;24.85;11.82;;;-1.60;99.90;;;;;;5108173;27;20054;-70
2023/01/18 07:14:29;;;;;;;20.55;11.18;;;-1.50;99.90;;;;;;5096277;28;20078;-70
2023/01/18 07:16:55;;;;;;;23.45;10.77;;;-1.50;99.90;;;;;;5108990;27;20101;-70
2023/01/18 07:19:20;;;;;;;24.38;12.18;;;-1.60;99.90;;;;;;5112061;27;20034;-71
2023/01/18 07:21:47;;;;;;;22.50;11.88;;;-1.60;99.90;;;;;;5108328;27;20073;-71
2023/01/18 07:24:12;;;;;;;21.88;11.02;;;-1.60;99.90;;;;;;5123644;27;20035;-70
2023/01/18 07:26:38;;;;;;;22.63;11.35;;;-1.50;99.90;;;;;;5108296;28;20035;-71
2023/01/18 07:29:04;;;;;;;23.65;11.52;;;-1.50;99.90;;;;;;5109778;28;20031;-70
2023/01/18 07:31:29;;;;;;;22.40;11.00;;;-1.60;99.90;;;;;;5111307;28;20122;-71
2023/01/18 07:33:55;;;;;;;22.33;11.93;;;-1.60;99.90;;;;;;5110597;28;20037;-70
2023/01/18 07:36:26;;;;;;;22.85;11.23;;;-1.40;99.90;;;;;;5107761;28;20172;-71
2023/01/18 07:38:51;;;;;;;26.80;11.70;;;-1.50;99.90;;;;;;5116981;27;20545;-71
2023/01/18 07:41:18;;;;;;;22.90;11.23;;;-1.60;99.90;;;;;;5106781;28;20110;-71
2023/01/18 07:43:43;;;;;;;23.33;10.85;;;-1.50;99.90;;;;;;5114695;28;20046;-70
2023/01/18 07:46:15;;;;;;;21.75;11.40;;;-1.50;99.90;;;;;;5095190;28;20039;-71
2023/01/18 07:48:41;;;;;;;24.48;10.95;;;-1.60;99.90;;;;;;5097079;28;20117;-72
2023/01/18 07:51:09;;;;;;;19.73;10.13;;;-1.50;99.90;;;;;;5094609;28;20047;-72
2023/01/18 07:53:36;;;;;;;21.20;10.63;;;-1.50;99.90;;;;;;5102409;27;20065;-74
2023/01/18 07:56:07;;;;;;;19.45;10.70;;;-1.40;99.90;;;;;;5111605;28;20035;-73
2023/01/18 07:58:35;;;;;;;18.60;10.07;;;-1.40;99.90;;;;;;5108158;28;20454;-70
2023/01/18 08:01:10;;;;;;;25.55;10.98;;;-1.40;99.90;;;;;;5105733;28;20563;-72
2023/01/18 08:03:36;;;;;;;20.48;10.73;;;-1.30;99.90;;;;;;5108581;28;20397;-71
2023/01/18 08:06:04;;;;;;;22.58;10.15;;;-1.40;99.90;;;;;;5110179;28;20035;-73
2023/01/18 08:08:30;;;;;;;23.20;10.45;;;-1.30;99.90;;;;;;5107189;28;20085;-70
2023/01/18 08:10:59;;;;;;;22.08;9.68;;;-1.20;99.90;;;;;;5105241;28;20511;-72
2023/01/18 08:13:26;;;;;;;19.85;9.98;;;-1.30;99.90;;;;;;5109001;27;20118;-72
2023/01/18 08:15:52;;;;;;;20.85;10.55;;;-1.30;99.90;;;;;;5113584;27;20039;-72
2023/01/18 08:18:18;;;;;;;23.95;10.18;;;-1.10;99.90;;;;;;5107632;27;20061;-70
2023/01/18 08:20:45;;;;;;;21.65;9.85;;;-1.20;99.90;;;;;;5110076;27;20031;-71
2023/01/18 08:23:16;;;;;;;23.10;10.25;;;-1.10;99.90;;;;;;5106819;27;20078;-70
2023/01/18 08:26:12;;;;;;;23.02;10.82;;;-1.10;99.90;;;;;;5118866;27;20035;-70
2023/01/18 08:32:23;;;;;;;19.45;10.30;;;-1.10;99.90;;;;;;5127851;27;20035;-69
2023/01/18 08:35:15;;;;;;;18.38;10.00;;;-1.00;99.90;;;;;;5108217;27;20146;-70
2023/01/18 08:37:52;;;;;;;20.67;10.88;;;-1.00;99.90;;;;;;5113243;27;20120;-71
2023/01/18 08:43:58;;;;;;;23.33;10.95;;;-0.90;99.90;;;;;;5126432;27;20123;-70
2023/01/18 08:47:16;;;;;;;20.55;10.80;;;-0.90;99.90;;;;;;5101277;28;20097;-71
2023/01/18 08:50:43;;;;;;;21.02;10.93;;;-0.70;99.90;;;;;;5116159;27;20439;-72
2023/01/18 08:57:03;;;;;;;24.75;11.00;;;-0.70;99.90;;;;;;5124549;27;20144;-70
2023/01/18 09:03:10;;;;;;;23.35;11.35;;;-0.50;99.90;;;;;;5125765;27;20442;-71
2023/01/18 09:05:35;;;;;;;22.92;12.25;;;-0.40;99.90;;;;;;5112435;27;20031;-71
2023/01/18 09:08:13;;;;;;;23.95;11.50;;;-0.50;99.90;;;;;;5113536;28;20084;-72
2023/01/18 09:11:30;;;;;;;39.25;12.70;;;-0.40;99.90;;;;;;5108203;27;20039;-71
2023/01/18 09:13:57;;;;;;;23.45;11.20;;;-0.20;99.90;;;;;;5089278;27;20539;-72
2023/01/18 09:16:23;;;;;;;25.98;12.48;;;-0.20;99.90;;;;;;5111607;27;20077;-72
2023/01/18 09:18:49;;;;;;;26.10;12.35;;;-0.10;99.90;;;;;;5114482;27;20102;-71
2023/01/18 09:21:18;;;;;;;21.38;11.82;;;0.00;99.90;;;;;;5114535;27;20038;-72
2023/01/18 09:23:44;;;;;;;25.45;11.93;;;0.00;99.90;;;;;;5113994;27;20039;-70
2023/01/18 09:26:46;;;;;;;21.83;11.32;;;0.00;99.90;;;;;;5098827;27;20081;-71
2023/01/18 09:29:11;;;;;;;21.85;11.75;;;0.10;99.90;;;;;;5109435;27;20039;-70
2023/01/18 09:32:01;;;;;;;24.85;11.75;;;0.10;99.90;;;;;;5107966;27;20038;-70
2023/01/18 09:34:49;;;;;;;21.48;11.60;;;0.20;99.90;;;;;;5112574;27;20059;-70
2023/01/18 09:37:16;;;;;;;20.67;11.52;;;0.10;99.90;;;;;;5106367;27;20032;-71
2023/01/18 09:39:43;;;;;;;21.13;11.40;;;0.20;99.90;;;;;;5102668;27;20035;-72
2023/01/18 09:42:22;;;;;;;23.17;12.20;;;0.30;99.90;;;;;;5112552;27;20035;-69
2023/01/18 09:44:59;;;;;;;20.77;11.30;;;0.20;99.90;;;;;;5103431;27;20058;-72
2023/01/18 09:47:29;;;;;;;18.60;11.30;;;0.30;99.90;;;;;;5109487;27;20039;-70
2023/01/18 09:49:56;;;;;;;20.25;10.52;;;0.40;99.90;;;;;;5107918;28;20039;-71
2023/01/18 09:52:57;;;;;;;24.17;10.98;;;0.40;99.90;;;;;;5092846;27;20398;-71
2023/01/18 09:55:39;;;;;;;20.20;11.32;;;0.50;99.90;;;;;;5111000;27;20433;-70
2023/01/18 09:58:34;;;;;;;19.77;10.60;;;0.60;99.90;;;;;;5122110;27;20430;-68
2023/01/18 10:01:15;;;;;;;21.42;11.45;;;0.50;99.90;;;;;;5105088;27;20023;-69
2023/01/18 10:04:16;;;;;;;22.17;10.55;;;0.60;99.90;;;;;;5109798;27;20492;-70
2023/01/18 10:06:57;;;;;;;20.88;10.75;;;0.70;99.90;;;;;;5108464;27;20043;-71
2023/01/18 10:09:35;;;;;;;18.42;11.18;;;0.80;99.90;;;;;;5112956;27;20050;-68
2023/01/18 10:12:38;;;;;;;20.67;11.10;;;0.70;99.90;;;;;;5109490;27;20378;-72
2023/01/18 10:15:16;;;;;;;18.98;11.13;;;0.80;99.90;;;;;;5107471;27;20047;-71
2023/01/18 10:17:55;;;;;;;23.73;11.60;;;0.90;99.90;;;;;;5106157;27;20537;-71
2023/01/18 10:20:34;;;;;;;23.63;11.10;;;0.90;99.90;;;;;;5106705;27;20043;-70
2023/01/18 10:23:10;;;;;;;22.02;10.65;;;1.00;99.90;;;;;;5110632;27;20042;-70
2023/01/18 10:25:56;;;;;;;20.33;10.85;;;1.00;99.90;;;;;;5114347;27;20497;-70
2023/01/18 10:28:55;;;;;;;19.35;10.38;;;1.00;99.90;;;;;;5109960;27;20031;-72
2023/01/18 10:31:43;;;;;;;24.70;11.07;;;1.10;99.90;;;;;;5099565;27;20047;-71
2023/01/18 10:34:28;;;;;;;22.38;11.25;;;1.20;99.90;;;;;;5104070;27;20039;-71
2023/01/18 10:37:26;;;;;;;21.38;10.65;;;1.20;99.90;;;;;;5112872;27;20381;-71
2023/01/18 10:40:04;;;;;;;19.02;9.70;;;1.30;99.90;;;;;;5102891;27;20123;-71
2023/01/18 10:42:39;;;;;;;18.27;10.02;;;1.30;99.90;;;;;;5088578;27;20087;-72
2023/01/18 10:45:24;;;;;;;19.02;10.75;;;1.40;99.90;;;;;;5109247;27;20036;-71
2023/01/18 10:48:32;;;;;;;18.73;10.63;;;1.40;99.90;;;;;;5105317;27;20485;-71
2023/01/18 10:51:04;;;;;;;23.48;10.52;;;1.50;99.90;;;;;;5108821;27;20046;-71
2023/01/18 10:53:31;;;;;;;;;;;1.50;99.90;;;;;;5101339;27;20066;-70
2023/01/18 10:56:03;;;;;;;21.05;10.13;;;1.50;99.90;;;;;;5098601;28;19963;-69
2023/01/18 10:58:53;;;;;;;19.58;10.20;;;1.60;99.90;;;;;;5104535;27;20039;-70
2023/01/18 11:01:27;;;;;;;18.27;9.75;;;1.60;99.90;;;;;;5098784;27;20083;-69
2023/01/18 11:04:18;;;;;;;18.08;10.10;;;1.70;99.90;;;;;;5112027;28;20039;-71
2023/01/18 11:06:48;;;;;;;16.95;9.95;;;1.70;99.90;;;;;;5101522;28;20495;-71
2023/01/18 11:09:37;;;;;;;18.42;9.50;;;1.70;99.90;;;;;;5101057;27;20128;-72
2023/01/18 11:12:41;;;;;;;16.13;10.10;;;1.80;99.90;;;;;;5101517;27;20074;-71
2023/01/18 11:15:12;;;;;;;19.48;10.32;;;1.80;99.90;;;;;;5106031;27;20047;-72
2023/01/18 11:17:40;;;;;;;19.53;10.40;;;1.90;99.90;;;;;;5100310;27;20043;-71
2023/01/18 11:20:15;;;;;;;20.98;9.95;;;1.90;99.90;;;;;;5105735;28;20350;-71
2023/01/18 11:22:55;;;;;;;16.95;9.73;;;1.90;99.90;;;;;;5103091;27;20144;-71
2023/01/18 11:25:21;;;;;;;23.00;10.93;;;2.00;99.90;;;;;;5109689;28;20462;-71
2023/01/18 11:27:48;;;;;;;18.98;9.82;;;2.00;99.90;;;;;;5105742;27;20047;-71
2023/01/18 11:30:24;;;;;;;17.23;9.40;;;2.10;99.90;;;;;;5111372;28;20118;-70
2023/01/18 11:32:50;;;;;;;19.05;9.90;;;2.10;99.90;;;;;;5102426;27;20072;-73
2023/01/18 11:35:44;;;;;;;17.27;9.85;;;2.20;99.90;;;;;;5100873;28;20134;-71
2023/01/18 11:38:17;;;;;;;18.35;9.82;;;2.20;99.90;;;;;;5094017;27;20051;-71
2023/01/18 11:40:43;;;;;;;16.42;9.75;;;2.30;99.90;;;;;;5103549;28;20038;-69
2023/01/18 11:43:21;;;;;;;17.10;9.25;;;2.30;99.90;;;;;;5102569;28;20024;-69
2023/01/18 11:45:59;;;;;;;18.05;9.85;;;2.40;99.90;;;;;;5104805;27;20043;-71
2023/01/18 11:49:05;;;;;;;17.17;9.27;;;2.40;99.90;;;;;;5104501;27;20440;-70
2023/01/18 11:51:41;;;;;;;17.58;9.60;;;2.40;99.90;;;;;;5005055;28;20045;-69
2023/01/18 11:54:17;;;;;;;16.02;9.38;;;2.40;99.90;;;;;;5003713;28;20037;-71
2023/01/18 11:56:54;;;;;;;16.70;9.68;;;2.50;99.90;;;;;;5065686;27;20126;-67
2023/01/18 11:59:29;;;;;;;15.68;9.82;;;2.60;99.90;;;;;;5113456;27;20596;-66
2023/01/18 12:02:32;;;;;;;20.45;9.90;;;2.60;99.90;;;;;;5105046;27;20055;-66
2023/01/18 12:05:28;;;;;;;20.45;9.18;;;2.70;99.90;;;;;;5105193;27;20124;-66
2023/01/18 12:08:18;;;;;;;17.95;9.35;;;2.70;99.90;;;;;;5106842;27;20437;-66
2023/01/18 12:10:53;;;;;;;22.63;10.65;;;2.80;99.90;;;;;;5089712;27;20038;-67
2023/01/18 12:13:46;;;;;;;18.15;10.10;;;2.80;99.90;;;;;;5102296;27;20426;-68
2023/01/18 12:16:40;;;;;;;17.58;9.40;;;2.80;99.90;;;;;;5104610;27;20050;-66
2023/01/18 12:19:08;;;;;;;18.88;8.98;;;2.90;99.90;;;;;;5100702;27;20067;-72
2023/01/18 12:21:44;;;;;;;21.23;10.02;;;2.90;99.90;;;;;;5095894;27;20050;-66
2023/01/18 12:24:12;;;;;;;21.48;10.00;;;2.90;99.90;;;;;;5103244;27;20122;-65
2023/01/18 12:26:56;;;;;;;14.80;9.15;;;2.90;99.90;;;;;;5104850;27;20175;-66
2023/01/18 12:30:08;;;;;;;16.73;9.18;;;2.90;99.90;;;;;;5103018;27;20071;-66
2023/01/18 12:32:48;;;;;;;17.65;9.18;;;3.00;99.90;;;;;;5098567;27;20401;-66
2023/01/18 12:35:42;;;;;;;14.77;9.07;;;3.00;99.90;;;;;;5106614;27;20051;-68
2023/01/18 12:38:21;;;;;;;15.35;8.27;;;3.00;99.90;;;;;;5108554;27;20042;-70
2023/01/18 12:40:47;;;;;;;17.77;8.93;;;3.00;99.90;;;;;;5104161;27;20072;-65
2023/01/18 12:43:28;;;;;;;15.63;9.20;;;3.10;99.90;;;;;;5100918;27;20125;-67
2023/01/18 12:46:06;;;;;;;17.13;9.43;;;3.10;99.90;;;;;;5108283;27;20163;-71
2023/01/18 12:49:00;;;;;;;18.20;9.30;;;3.20;99.90;;;;;;5105348;27;20031;-68
2023/01/18 12:51:31;;;;;;;17.75;9.07;;;3.30;99.90;;;;;;5107086;27;20052;-67
2023/01/18 12:54:19;;;;;;;16.48;9.02;;;3.30;99.90;;;;;;5108560;27;20043;-65
2023/01/18 12:56:48;;;;;;;21.95;9.35;;;3.30;99.90;;;;;;5104285;27;20051;-68
2023/01/18 12:59:21;;;;;;;18.13;9.23;;;3.50;99.90;;;;;;5130048;27;20077;-67
2023/01/18 13:01:54;;;;;;;16.95;8.85;;;3.50;99.90;;;;;;5103455;27;20045;-69
2023/01/18 13:04:30;;;;;;;17.20;9.43;;;3.50;99.90;;;;;;5106408;27;20035;-67
2023/01/18 13:07:05;;;;;;;18.83;9.13;;;3.60;99.90;;;;;;5108714;27;20078;-66
2023/01/18 13:09:36;;;;;;;16.25;9.10;;;3.60;99.90;;;;;;5110286;27;20042;-66
2023/01/18 13:12:04;;;;;;;17.30;9.38;;;3.60;99.90;;;;;;5108405;27;20134;-67
2023/01/18 13:14:38;;;;;;;18.73;9.10;;;3.70;99.90;;;;;;5098439;27;20036;-69
2023/01/18 13:17:30;;;;;;;21.17;8.95;;;3.80;99.90;;;;;;5103349;27;20045;-68
2023/01/18 13:20:11;;;;;;;14.43;8.77;;;3.80;99.90;;;;;;5107412;27;20035;-69
2023/01/18 13:22:43;;;;;;;16.67;8.88;;;3.90;99.90;;;;;;5105473;27;20049;-67
2023/01/18 13:25:38;;;;;;;14.95;7.88;;;3.90;99.90;;;;;;5100674;27;20104;-69
2023/01/18 13:28:22;;;;;;;16.00;7.43;;;3.80;99.90;;;;;;5105171;27;20043;-65
2023/01/18 13:30:59;;;;;;;12.25;6.65;;;3.80;99.90;;;;;;5104293;27;20090;-66
2023/01/18 13:33:27;;;;;;;16.30;6.63;;;3.80;99.90;;;;;;5110359;27;20076;-67
2023/01/18 13:36:03;;;;;;;12.38;6.57;;;3.80;99.90;;;;;;5112358;27;20435;-67
2023/01/18 13:38:35;;;;;;;12.88;6.38;;;3.70;99.90;;;;;;5094076;27;20473;-66
2023/01/18 13:41:04;;;;;;;15.90;5.97;;;3.70;99.90;;;;;;5117029;27;20039;-65
2023/01/18 13:44:00;;;;;;;13.05;6.07;;;3.70;99.90;;;;;;5110441;27;20031;-66
2023/01/18 13:46:26;;;;;;;16.40;6.53;;;3.60;99.90;;;;;;5119950;27;20076;-66
2023/01/18 13:48:54;;;;;;;12.65;6.20;;;3.60;99.90;;;;;;5094673;27;20074;-66
2023/01/18 13:51:45;;;;;;;14.55;6.57;;;3.60;99.90;;;;;;5112181;27;20043;-64
2023/01/18 13:54:17;;;;;;;9.93;6.03;;;3.50;99.90;;;;;;5110503;27;20523;-65
2023/01/18 13:57:14;;;;;;;13.40;6.25;;;3.60;99.90;;;;;;5111616;27;20073;-63
2023/01/18 13:59:46;;;;;;;10.55;5.70;;;3.50;99.90;;;;;;5101991;27;20051;-66